Kosrae, Federated States of Micronesia
Current Conditions -  °F | °C
As of 7:52 AM on Tuesday 21 Oct 2014 (Local Time) from PTTP Reporting Station
Scattered Clouds Scattered Clouds  
Wind Chill: 86°   Ceiling: Unl
Heat Index: 96°   Visibility: 15mi
Dew Point: 77°   Wind: 2mph
Humidity: 75%   Direction: 280°W
Pressure: 29.88"   Gusts: NA
Location:  5.33°N, 163.03°E
Report Text: PTTP 202152Z 28002KT 15SM FEW017 SCT300 30/25 A2988 RMK SLP117 T02980249
Loading
Personal Weather Stations






























Interactive Weather Map
Tropical Storm Tracking
New forecast layout! Learn more

10-Day Weather Forecast

Advertisements
Track Severe Weather on mobile